sensor_id;sensor_type;location;lat;lon;timestamp;pressure;altitude;pressure_sealevel;temperature;humidity
44144;BME280;43510;51.920;4.492;2022-10-20T00:00:58;67225.50;;;12.33;100.00
44144;BME280;43510;51.920;4.492;2022-10-20T00:03:25;67230.53;;;12.38;100.00
44144;BME280;43510;51.920;4.492;2022-10-20T00:05:51;67229.97;;;12.37;100.00
44144;BME280;43510;51.920;4.492;2022-10-20T00:08:20;67227.91;;;12.38;100.00
44144;BME280;43510;51.920;4.492;2022-10-20T00:10:55;67232.75;;;12.40;100.00
44144;BME280;43510;51.920;4.492;2022-10-20T00:13:22;67227.72;;;12.35;100.00
44144;BME280;43510;51.920;4.492;2022-10-20T00:15:52;67235.19;;;12.44;100.00
44144;BME280;43510;51.920;4.492;2022-10-20T00:18:19;67235.56;;;12.42;100.00
44144;BME280;43510;51.920;4.492;2022-10-20T00:20:45;67223.97;;;12.34;100.00
44144;BME280;43510;51.920;4.492;2022-10-20T00:23:10;67218.56;;;12.32;100.00
44144;BME280;43510;51.920;4.492;2022-10-20T00:25:36;67205.00;;;12.17;100.00
44144;BME280;43510;51.920;4.492;2022-10-20T00:28:02;67221.44;;;12.27;100.00
44144;BME280;43510;51.920;4.492;2022-10-20T00:30:28;67224.41;;;12.32;100.00
44144;BME280;43510;51.920;4.492;2022-10-20T00:32:54;67230.38;;;12.35;100.00
44144;BME280;43510;51.920;4.492;2022-10-20T00:35:19;67229.41;;;12.37;100.00
44144;BME280;43510;51.920;4.492;2022-10-20T00:37:45;67223.28;;;12.31;100.00
44144;BME280;43510;51.920;4.492;2022-10-20T00:40:11;67226.78;;;12.37;100.00
44144;BME280;43510;51.920;4.492;2022-10-20T00:42:36;67218.41;;;12.29;100.00
44144;BME280;43510;51.920;4.492;2022-10-20T00:45:03;67224.41;;;12.32;100.00
44144;BME280;43510;51.920;4.492;2022-10-20T00:47:45;67238.19;;;12.42;100.00
44144;BME280;43510;51.920;4.492;2022-10-20T00:52:43;67238.19;;;12.42;100.00
44144;BME280;43510;51.920;4.492;2022-10-20T00:55:14;67229.19;;;12.41;100.00
44144;BME280;43510;51.920;4.492;2022-10-20T00:57:44;67232.38;;;12.42;100.00
44144;BME280;43510;51.920;4.492;2022-10-20T01:00:11;67234.44;;;12.41;100.00
44144;BME280;43510;51.920;4.492;2022-10-20T01:02:37;67238.75;;;12.43;100.00
44144;BME280;43510;51.920;4.492;2022-10-20T01:05:03;67229.03;;;12.39;100.00
44144;BME280;43510;51.920;4.492;2022-10-20T01:07:28;67231.09;;;12.38;100.00
44144;BME280;43510;51.920;4.492;2022-10-20T01:09:54;67219.84;;;12.35;100.00
44144;BME280;43510;51.920;4.492;2022-10-20T01:12:34;67237.81;;;12.44;100.00
44144;BME280;43510;51.920;4.492;2022-10-20T01:15:53;67243.38;;;12.49;100.00
44144;BME280;43510;51.920;4.492;2022-10-20T01:21:33;67224.94;;;12.33;100.00
44144;BME280;43510;51.920;4.492;2022-10-20T01:27:26;67223.28;;;12.31;100.00
44144;BME280;43510;51.920;4.492;2022-10-20T01:30:02;67212.81;;;12.24;100.00
44144;BME280;43510;51.920;4.492;2022-10-20T01:38:34;67216.56;;;12.25;100.00
44144;BME280;43510;51.920;4.492;2022-10-20T01:43:45;67194.41;;;12.07;100.00
44144;BME280;43510;51.920;4.492;2022-10-20T01:46:12;67196.63;;;12.09;100.00
44144;BME280;43510;51.920;4.492;2022-10-20T01:48:40;67194.94;;;12.08;100.00
44144;BME280;43510;51.920;4.492;2022-10-20T01:51:13;67202.22;;;12.14;100.00
44144;BME280;43510;51.920;4.492;2022-10-20T01:53:39;67191.59;;;12.05;100.00
44144;BME280;43510;51.920;4.492;2022-10-20T01:56:05;67198.53;;;12.06;100.00
44144;BME280;43510;51.920;4.492;2022-10-20T02:04:04;67178.75;;;11.93;100.00
44144;BME280;43510;51.920;4.492;2022-10-20T02:06:41;67193.50;;;12.02;100.00
44144;BME280;43510;51.920;4.492;2022-10-20T02:09:12;67179.31;;;11.94;100.00
44144;BME280;43510;51.920;4.492;2022-10-20T02:14:13;67186.81;;;11.96;100.00
44144;BME280;43510;51.920;4.492;2022-10-20T02:16:44;67179.88;;;11.94;100.00
44144;BME280;43510;51.920;4.492;2022-10-20T02:19:12;67166.69;;;11.77;100.00
44144;BME280;43510;51.920;4.492;2022-10-20T02:21:39;67175.00;;;11.92;100.00
44144;BME280;43510;51.920;4.492;2022-10-20T02:24:06;67189.94;;;12.03;100.00
44144;BME280;43510;51.920;4.492;2022-10-20T02:26:34;67203.16;;;12.13;100.00
44144;BME280;43510;51.920;4.492;2022-10-20T02:29:19;67197.72;;;12.10;100.00
44144;BME280;43510;51.920;4.492;2022-10-20T02:31:45;67189.75;;;12.01;100.00
44144;BME280;43510;51.920;4.492;2022-10-20T02:34:11;67188.25;;;12.02;100.00
44144;BME280;43510;51.920;4.492;2022-10-20T02:36:40;67187.13;;;12.01;100.00
44144;BME280;43510;51.920;4.492;2022-10-20T02:39:06;67200.53;;;12.13;100.00
44144;BME280;43510;51.920;4.492;2022-10-20T02:41:32;67202.03;;;12.12;100.00
44144;BME280;43510;51.920;4.492;2022-10-20T02:43:57;67204.84;;;12.14;100.00
44144;BME280;43510;51.920;4.492;2022-10-20T02:46:24;67204.28;;;12.14;100.00
44144;BME280;43510;51.920;4.492;2022-10-20T02:48:49;67187.38;;;11.96;100.00
44144;BME280;43510;51.920;4.492;2022-10-20T02:51:15;67194.78;;;12.05;100.00
44144;BME280;43510;51.920;4.492;2022-10-20T02:53:43;67208.91;;;12.20;100.00
44144;BME280;43510;51.920;4.492;2022-10-20T02:56:09;67213.63;;;12.20;100.00
44144;BME280;43510;51.920;4.492;2022-10-20T02:58:34;67208.75;;;12.18;100.00
44144;BME280;43510;51.920;4.492;2022-10-20T03:01:00;67193.28;;;12.06;100.00
44144;BME280;43510;51.920;4.492;2022-10-20T03:03:26;67216.94;;;12.23;100.00
44144;BME280;43510;51.920;4.492;2022-10-20T03:05:52;67190.66;;;12.06;100.00
44144;BME280;43510;51.920;4.492;2022-10-20T03:08:17;67207.25;;;12.19;100.00
44144;BME280;43510;51.920;4.492;2022-10-20T03:10:43;67212.81;;;12.24;100.00
44144;BME280;43510;51.920;4.492;2022-10-20T03:13:09;67208.75;;;12.18;100.00
44144;BME280;43510;51.920;4.492;2022-10-20T03:15:36;67212.09;;;12.21;100.00
44144;BME280;43510;51.920;4.492;2022-10-20T03:18:02;67217.28;;;12.28;100.00
44144;BME280;43510;51.920;4.492;2022-10-20T03:20:28;67225.66;;;12.36;100.00
44144;BME280;43510;51.920;4.492;2022-10-20T03:22:53;67225.50;;;12.33;100.00
44144;BME280;43510;51.920;4.492;2022-10-20T03:25:19;67227.72;;;12.35;100.00
44144;BME280;43510;51.920;4.492;2022-10-20T03:27:44;67226.22;;;12.36;100.00
44144;BME280;43510;51.920;4.492;2022-10-20T03:30:10;67222.16;;;12.30;100.00
44144;BME280;43510;51.920;4.492;2022-10-20T03:32:35;67236.28;;;12.45;100.00
44144;BME280;43510;51.920;4.492;2022-10-20T03:35:03;67242.25;;;12.48;100.00
44144;BME280;43510;51.920;4.492;2022-10-20T03:37:28;67240.91;;;12.52;100.00
44144;BME280;43510;51.920;4.492;2022-10-20T03:39:53;67237.41;;;12.46;100.00
44144;BME280;43510;51.920;4.492;2022-10-20T03:42:19;67248.59;;;12.56;100.00
44144;BME280;43510;51.920;4.492;2022-10-20T03:44:44;67238.50;;;12.47;100.00
44144;BME280;43510;51.920;4.492;2022-10-20T03:47:11;67243.38;;;12.49;100.00
44144;BME280;43510;51.920;4.492;2022-10-20T03:49:37;67246.34;;;12.54;100.00
44144;BME280;43510;51.920;4.492;2022-10-20T03:52:03;67258.47;;;12.63;100.00
44144;BME280;43510;51.920;4.492;2022-10-20T03:54:28;67260.13;;;12.64;100.00
44144;BME280;43510;51.920;4.492;2022-10-20T03:56:54;67253.44;;;12.58;100.00
44144;BME280;43510;51.920;4.492;2022-10-20T03:59:19;67264.63;;;12.68;100.00
44144;BME280;43510;51.920;4.492;2022-10-20T04:01:45;67263.09;;;12.69;100.00
44144;BME280;43510;51.920;4.492;2022-10-20T04:04:11;67270.22;;;12.74;100.00
44144;BME280;43510;51.920;4.492;2022-10-20T04:06:36;67272.03;;;12.78;100.00
44144;BME280;43510;51.920;4.492;2022-10-20T04:09:02;67271.31;;;12.75;100.00
44144;BME280;43510;51.920;4.492;2022-10-20T04:11:29;67262.88;;;12.74;100.00
44144;BME280;43510;51.920;4.492;2022-10-20T04:13:54;67281.75;;;12.82;100.00
44144;BME280;43510;51.920;4.492;2022-10-20T04:16:20;67273.00;;;12.76;100.00
44144;BME280;43510;51.920;4.492;2022-10-20T04:18:45;67280.25;;;12.83;100.00
44144;BME280;43510;51.920;4.492;2022-10-20T04:21:11;67276.91;;;12.80;100.00
44144;BME280;43510;51.920;4.492;2022-10-20T04:23:36;67286.25;;;12.86;100.00
44144;BME280;43510;51.920;4.492;2022-10-20T04:26:13;67286.00;;;12.90;100.00
44144;BME280;43510;51.920;4.492;2022-10-20T04:28:39;67289.59;;;12.89;100.00
44144;BME280;43510;51.920;4.492;2022-10-20T04:31:05;67274.06;;;12.84;100.00
44144;BME280;43510;51.920;4.492;2022-10-20T04:33:31;67286.25;;;12.86;100.00
44144;BME280;43510;51.920;4.492;2022-10-20T04:36:09;67285.84;;;12.88;100.00
44144;BME280;43510;51.920;4.492;2022-10-20T04:38:35;67278.75;;;12.84;100.00
44144;BME280;43510;51.920;4.492;2022-10-20T04:41:03;67282.31;;;12.82;100.00
44144;BME280;43510;51.920;4.492;2022-10-20T04:43:29;67281.38;;;12.84;100.00
44144;BME280;43510;51.920;4.492;2022-10-20T04:45:59;67287.13;;;12.91;100.00
44144;BME280;43510;51.920;4.492;2022-10-20T04:48:25;67277.63;;;12.83;100.00
44144;BME280;43510;51.920;4.492;2022-10-20T04:51:05;67289.91;;;12.94;100.00
44144;BME280;43510;51.920;4.492;2022-10-20T04:53:31;67287.38;;;12.87;100.00
44144;BME280;43510;51.920;4.492;2022-10-20T04:55:56;67287.38;;;12.87;100.00
44144;BME280;43510;51.920;4.492;2022-10-20T04:58:23;67289.22;;;12.91;100.00
44144;BME280;43510;51.920;4.492;2022-10-20T05:00:48;67284.75;;;12.87;100.00
44144;BME280;43510;51.920;4.492;2022-10-20T05:03:17;67264.63;;;12.68;100.00
44144;BME280;43510;51.920;4.492;2022-10-20T05:05:44;67275.06;;;12.76;100.00
44144;BME280;43510;51.920;4.492;2022-10-20T05:08:09;67281.75;;;12.82;100.00
44144;BME280;43510;51.920;4.492;2022-10-20T05:10:35;67281.00;;;12.86;100.00
44144;BME280;43510;51.920;4.492;2022-10-20T05:13:00;67284.34;;;12.89;100.00
44144;BME280;43510;51.920;4.492;2022-10-20T05:15:26;67290.16;;;12.89;100.00
44144;BME280;43510;51.920;4.492;2022-10-20T05:17:51;67285.44;;;12.90;100.00
44144;BME280;43510;51.920;4.492;2022-10-20T05:20:16;67297.41;;;12.96;100.00
44144;BME280;43510;51.920;4.492;2022-10-20T05:22:42;67288.09;;;12.90;100.00
44144;BME280;43510;51.920;4.492;2022-10-20T05:25:07;67290.31;;;12.92;100.00
44144;BME280;43510;51.920;4.492;2022-10-20T05:27:33;67289.78;;;12.91;100.00
44144;BME280;43510;51.920;4.492;2022-10-20T05:29:58;67292.41;;;12.91;100.00
44144;BME280;43510;51.920;4.492;2022-10-20T05:32:26;67283.94;;;12.91;100.00
44144;BME280;43510;51.920;4.492;2022-10-20T05:34:51;67282.81;;;12.90;100.00
44144;BME280;43510;51.920;4.492;2022-10-20T05:37:17;67281.56;;;12.86;100.00
44144;BME280;43510;51.920;4.492;2022-10-20T05:39:42;67291.84;;;12.91;100.00
44144;BME280;43510;51.920;4.492;2022-10-20T05:42:07;67282.13;;;12.87;100.00
44144;BME280;43510;51.920;4.492;2022-10-20T05:44:33;67281.00;;;12.86;100.00
44144;BME280;43510;51.920;4.492;2022-10-20T05:46:58;67293.34;;;12.90;100.00
44144;BME280;43510;51.920;4.492;2022-10-20T05:49:23;67286.97;;;12.89;100.00
44144;BME280;43510;51.920;4.492;2022-10-20T05:51:49;67278.56;;;12.81;100.00
44144;BME280;43510;51.920;4.492;2022-10-20T05:54:14;67274.84;;;12.80;100.00
44144;BME280;43510;51.920;4.492;2022-10-20T05:56:40;67281.38;;;12.84;100.00
44144;BME280;43510;51.920;4.492;2022-10-20T05:59:06;67280.66;;;12.81;100.00
44144;BME280;43510;51.920;4.492;2022-10-20T06:01:32;67272.03;;;12.78;100.00
44144;BME280;43510;51.920;4.492;2022-10-20T06:04:20;67283.22;;;12.88;100.00
44144;BME280;43510;51.920;4.492;2022-10-20T06:06:54;67283.22;;;12.88;100.00
44144;BME280;43510;51.920;4.492;2022-10-20T06:09:20;67286.00;;;12.90;100.00
44144;BME280;43510;51.920;4.492;2022-10-20T06:11:50;67289.78;;;12.91;100.00
44144;BME280;43510;51.920;4.492;2022-10-20T06:14:16;67286.00;;;12.90;100.00
44144;BME280;43510;51.920;4.492;2022-10-20T06:16:42;67281.00;;;12.86;100.00
44144;BME280;43510;51.920;4.492;2022-10-20T06:19:07;67287.69;;;12.92;100.00
44144;BME280;43510;51.920;4.492;2022-10-20T06:21:35;67281.56;;;12.86;100.00
44144;BME280;43510;51.920;4.492;2022-10-20T06:24:02;67284.34;;;12.89;100.00
44144;BME280;43510;51.920;4.492;2022-10-20T06:26:30;67291.28;;;12.90;100.00
44144;BME280;43510;51.920;4.492;2022-10-20T06:29:06;67298.31;;;13.01;100.00
44144;BME280;43510;51.920;4.492;2022-10-20T06:31:37;67296.63;;;13.00;100.00
44144;BME280;43510;51.920;4.492;2022-10-20T06:34:07;67293.28;;;12.97;100.00
44144;BME280;43510;51.920;4.492;2022-10-20T06:36:35;67296.63;;;13.00;100.00
44144;BME280;43510;51.920;4.492;2022-10-20T06:39:02;67296.63;;;13.00;100.00
44144;BME280;43510;51.920;4.492;2022-10-20T06:41:29;67304.84;;;13.05;100.00
44144;BME280;43510;51.920;4.492;2022-10-20T06:43:54;67302.78;;;13.05;100.00
44144;BME280;43510;51.920;4.492;2022-10-20T06:46:24;67306.53;;;13.06;100.00
44144;BME280;43510;51.920;4.492;2022-10-20T06:48:50;67306.69;;;13.09;100.00
44144;BME280;43510;51.920;4.492;2022-10-20T06:51:17;67308.91;;;13.11;100.00
44144;BME280;43510;51.920;4.492;2022-10-20T06:53:44;67306.53;;;13.06;100.00
44144;BME280;43510;51.920;4.492;2022-10-20T06:56:11;67321.66;;;13.20;100.00
44144;BME280;43510;51.920;4.492;2022-10-20T06:58:38;67320.69;;;13.22;100.00
44144;BME280;43510;51.920;4.492;2022-10-20T07:01:06;67325.00;;;13.23;100.00
44144;BME280;43510;51.920;4.492;2022-10-20T07:03:35;67325.00;;;13.23;100.00
44144;BME280;43510;51.920;4.492;2022-10-20T07:06:02;67325.16;;;13.26;100.00
44144;BME280;43510;51.920;4.492;2022-10-20T07:08:29;67329.63;;;13.30;100.00
44144;BME280;43510;51.920;4.492;2022-10-20T07:11:04;67339.16;;;13.38;100.00
44144;BME280;43510;51.920;4.492;2022-10-20T07:13:31;67333.16;;;13.35;100.00
44144;BME280;43510;51.920;4.492;2022-10-20T07:15:58;67348.09;;;13.46;100.00
44144;BME280;43510;51.920;4.492;2022-10-20T07:18:25;67355.59;;;13.48;100.00
44144;BME280;43510;51.920;4.492;2022-10-20T07:20:50;67357.59;;;13.55;100.00
44144;BME280;43510;51.920;4.492;2022-10-20T07:23:16;67354.97;;;13.55;100.00
44144;BME280;43510;51.920;4.492;2022-10-20T07:25:42;67369.88;;;13.66;100.00
44144;BME280;43510;51.920;4.492;2022-10-20T07:28:07;67380.19;;;13.71;100.00
44144;BME280;43510;51.920;4.492;2022-10-20T07:30:38;67378.28;;;13.74;100.00
44144;BME280;43510;51.920;4.492;2022-10-20T07:33:04;67381.63;;;13.77;100.00
44144;BME280;43510;51.920;4.492;2022-10-20T07:35:29;67381.47;;;13.74;100.00
44144;BME280;43510;51.920;4.492;2022-10-20T07:37:54;67386.34;;;13.76;100.00
44144;BME280;43510;51.920;4.492;2022-10-20T07:40:20;67384.25;;;13.77;100.00
44144;BME280;43510;51.920;4.492;2022-10-20T07:42:46;67385.00;;;13.80;100.00
44144;BME280;43510;51.920;4.492;2022-10-20T07:45:12;67393.59;;;13.83;100.00
44144;BME280;43510;51.920;4.492;2022-10-20T07:47:37;67395.47;;;13.87;100.00
44144;BME280;43510;51.920;4.492;2022-10-20T07:50:03;67390.59;;;13.85;100.00
44144;BME280;43510;51.920;4.492;2022-10-20T07:52:28;67403.69;;;13.92;100.00
44144;BME280;43510;51.920;4.492;2022-10-20T07:54:55;67398.41;;;13.92;100.00
44144;BME280;43510;51.920;4.492;2022-10-20T07:57:21;67401.75;;;13.95;100.00
44144;BME280;43510;51.920;4.492;2022-10-20T07:59:46;67401.00;;;13.99;100.00
44144;BME280;43510;51.920;4.492;2022-10-20T08:02:13;67408.47;;;14.01;100.00
44144;BME280;43510;51.920;4.492;2022-10-20T08:04:40;67417.59;;;14.12;100.00
44144;BME280;43510;51.920;4.492;2022-10-20T08:07:11;67422.63;;;14.16;100.00
44144;BME280;43510;51.920;4.492;2022-10-20T08:09:36;67425.84;;;14.17;100.00
44144;BME280;43510;51.920;4.492;2022-10-20T08:12:03;67424.16;;;14.15;100.00
44144;BME280;43510;51.920;4.492;2022-10-20T08:14:29;67433.66;;;14.24;100.00
44144;BME280;43510;51.920;4.492;2022-10-20T08:17:00;67438.16;;;14.28;100.00
44144;BME280;43510;51.920;4.492;2022-10-20T08:19:26;67445.81;;;14.32;100.00
44144;BME280;43510;51.920;4.492;2022-10-20T08:21:51;67449.34;;;14.38;100.00
44144;BME280;43510;51.920;4.492;2022-10-20T08:24:16;67460.53;;;14.48;100.00
44144;BME280;43510;51.920;4.492;2022-10-20T08:26:42;67472.13;;;14.56;100.00
44144;BME280;43510;51.920;4.492;2022-10-20T08:29:08;67468.22;;;14.53;100.00
44144;BME280;43510;51.920;4.492;2022-10-20T08:31:34;67475.50;;;14.59;100.00
44144;BME280;43510;51.920;4.492;2022-10-20T08:34:00;67478.47;;;14.64;100.00
44144;BME280;43510;51.920;4.492;2022-10-20T08:36:26;67484.63;;;14.70;100.00
44144;BME280;43510;51.920;4.492;2022-10-20T08:38:54;67490.91;;;14.78;100.00
44144;BME280;43510;51.920;4.492;2022-10-20T08:41:25;67501.41;;;14.85;100.00
44144;BME280;43510;51.920;4.492;2022-10-20T08:43:54;67507.41;;;14.88;100.00
44144;BME280;43510;51.920;4.492;2022-10-20T08:46:25;67502.84;;;14.91;100.00
44144;BME280;43510;51.920;4.492;2022-10-20T08:48:51;67512.59;;;14.95;100.00
44144;BME280;43510;51.920;4.492;2022-10-20T08:51:19;67511.16;;;14.89;100.00
44144;BME280;43510;51.920;4.492;2022-10-20T08:53:46;67502.84;;;14.91;100.00
44144;BME280;43510;51.920;4.492;2022-10-20T08:56:14;67511.47;;;14.94;100.00
44144;BME280;43510;51.920;4.492;2022-10-20T08:58:43;67532.44;;;15.08;100.00
44144;BME280;43510;51.920;4.492;2022-10-20T09:01:33;67547.00;;;15.22;100.00
44144;BME280;43510;51.920;4.492;2022-10-20T09:04:14;67536.28;;;15.19;100.00
44144;BME280;43510;51.920;4.492;2022-10-20T09:06:41;67542.44;;;15.25;100.00
44144;BME280;43510;51.920;4.492;2022-10-20T09:09:13;67554.84;;;15.29;100.00
44144;BME280;43510;51.920;4.492;2022-10-20T09:11:41;67562.25;;;15.38;100.00
44144;BME280;43510;51.920;4.492;2022-10-20T09:14:09;67561.16;;;15.37;100.00
44144;BME280;43510;51.920;4.492;2022-10-20T09:16:39;67572.91;;;15.47;100.00
44144;BME280;43510;51.920;4.492;2022-10-20T09:19:10;67566.34;;;15.44;100.00
44144;BME280;43510;51.920;4.492;2022-10-20T09:21:38;67571.53;;;15.51;100.00
44144;BME280;43510;51.920;4.492;2022-10-20T09:24:05;67577.03;;;15.54;100.00
44144;BME280;43510;51.920;4.492;2022-10-20T09:26:39;67593.66;;;15.66;100.00
44144;BME280;43510;51.920;4.492;2022-10-20T09:29:06;67594.78;;;15.67;100.00
44144;BME280;43510;51.920;4.492;2022-10-20T09:31:38;67601.50;;;15.73;100.00
44144;BME280;43510;51.920;4.492;2022-10-20T09:34:30;67621.84;;;15.94;100.00
44144;BME280;43510;51.920;4.492;2022-10-20T09:42:17;67611.34;;;15.87;100.00
44144;BME280;43510;51.920;4.492;2022-10-20T09:44:51;67620.72;;;15.93;100.00
44144;BME280;43510;51.920;4.492;2022-10-20T09:47:18;67619.75;;;15.95;100.00
44144;BME280;43510;51.920;4.492;2022-10-20T09:49:44;67630.81;;;16.02;100.00
44144;BME280;43510;51.920;4.492;2022-10-20T09:52:21;67642.97;;;16.11;100.00
44144;BME280;43510;51.920;4.492;2022-10-20T09:54:48;67639.75;;;16.10;100.00
44144;BME280;43510;51.920;4.492;2022-10-20T09:57:20;67648.16;;;16.18;100.00
44144;BME280;43510;51.920;4.492;2022-10-20T09:59:51;67645.53;;;16.18;100.00
44144;BME280;43510;51.920;4.492;2022-10-20T10:04:45;67640.31;;;16.11;100.00
44144;BME280;43510;51.920;4.492;2022-10-20T10:12:19;67599.97;;;15.74;100.00
44144;BME280;43510;51.920;4.492;2022-10-20T10:14:53;67588.22;;;15.64;100.00
44144;BME280;43510;51.920;4.492;2022-10-20T10:17:40;67587.66;;;15.63;100.00
44144;BME280;43510;51.920;4.492;2022-10-20T10:20:24;67574.75;;;15.51;100.00
44144;BME280;43510;51.920;4.492;2022-10-20T10:22:52;67573.47;;;15.48;100.00
44144;BME280;43510;51.920;4.492;2022-10-20T10:25:31;67566.91;;;15.44;100.00
44144;BME280;43510;51.920;4.492;2022-10-20T10:28:04;67566.34;;;15.44;100.00
44144;BME280;43510;51.920;4.492;2022-10-20T10:30:36;67565.63;;;15.41;100.00
44144;BME280;43510;51.920;4.492;2022-10-20T10:33:26;67574.75;;;15.51;100.00
44144;BME280;43510;51.920;4.492;2022-10-20T10:35:52;67569.53;;;15.44;100.00
44144;BME280;43510;51.920;4.492;2022-10-20T10:38:18;67568.03;;;15.45;100.00
44144;BME280;43510;51.920;4.492;2022-10-20T10:41:13;67575.91;;;15.52;100.00
44144;BME280;43510;51.920;4.492;2022-10-20T10:43:49;67566.50;;;15.46;100.00
44144;BME280;43510;51.920;4.492;2022-10-20T10:46:25;67568.97;;;15.44;100.00
44144;BME280;43510;51.920;4.492;2022-10-20T10:49:07;67579.81;;;15.56;100.00
44144;BME280;43510;51.920;4.492;2022-10-20T10:51:52;67579.81;;;15.56;100.00
44144;BME280;43510;51.920;4.492;2022-10-20T10:57:32;67603.91;;;15.78;100.00
44144;BME280;43510;51.920;4.492;2022-10-20T11:00:06;67616.47;;;15.84;100.00
44144;BME280;43510;51.920;4.492;2022-10-20T11:08:06;67692.28;;;16.55;100.00
44144;BME280;43510;51.920;4.492;2022-10-20T11:18:59;67692.44;;;16.58;100.00
44144;BME280;43510;51.920;4.492;2022-10-20T11:21:54;67683.47;;;16.50;100.00
44144;BME280;43510;51.920;4.492;2022-10-20T11:24:45;67678.97;;;16.46;100.00
44144;BME280;43510;51.920;4.492;2022-10-20T11:27:15;67674.75;;;16.37;100.00
44144;BME280;43510;51.920;4.492;2022-10-20T11:29:49;67669.88;;;16.35;100.00
44144;BME280;43510;51.920;4.492;2022-10-20T11:33:17;67668.34;;;16.36;100.00
44144;BME280;43510;51.920;4.492;2022-10-20T11:40:24;67636.81;;;16.05;100.00
44144;BME280;43510;51.920;4.492;2022-10-20T11:43:11;67638.63;;;16.09;100.00
44144;BME280;43510;51.920;4.492;2022-10-20T11:45:47;67631.38;;;16.03;100.00
44144;BME280;43510;51.920;4.492;2022-10-20T11:48:48;67642.16;;;16.15;100.00
44144;BME280;43510;51.920;4.492;2022-10-20T11:56:55;67650.25;;;16.17;100.00
44144;BME280;43510;51.920;4.492;2022-10-20T11:59:52;67647.03;;;16.17;100.00
44144;BME280;43510;51.920;4.492;2022-10-20T12:05:34;67635.13;;;16.04;100.00
44144;BME280;43510;51.920;4.492;2022-10-20T12:19:23;67641.84;;;16.10;100.00
44144;BME280;43510;51.920;4.492;2022-10-20T12:27:18;67650.31;;;16.27;100.00
44144;BME280;43510;51.920;4.492;2022-10-20T12:34:59;67664.44;;;16.32;100.00
44144;BME280;43510;51.920;4.492;2022-10-20T12:37:34;67683.72;;;16.45;100.00
44144;BME280;43510;51.920;4.492;2022-10-20T12:42:38;67703.13;;;16.67;100.00
44144;BME280;43510;51.920;4.492;2022-10-20T12:45:52;67714.34;;;16.78;100.00
44144;BME280;43510;51.920;4.492;2022-10-20T12:47:58;67732.69;;;16.92;100.00
44144;BME280;43510;51.920;4.492;2022-10-20T12:50:37;67733.00;;;16.97;100.00
44144;BME280;43510;51.920;4.492;2022-10-20T12:56:11;67763.66;;;17.22;100.00
44144;BME280;43510;51.920;4.492;2022-10-20T12:59:21;67786.13;;;17.42;100.00
44144;BME280;43510;51.920;4.492;2022-10-20T13:10:37;67866.94;;;18.15;100.00
44144;BME280;43510;51.920;4.492;2022-10-20T13:15:44;67863.41;;;18.10;100.00
44144;BME280;43510;51.920;4.492;2022-10-20T13:18:24;67870.88;;;18.19;100.00
44144;BME280;43510;51.920;4.492;2022-10-20T13:21:00;67882.66;;;18.29;100.00
44144;BME280;43510;51.920;4.492;2022-10-20T13:23:46;67888.03;;;18.39;100.00
44144;BME280;43510;51.920;4.492;2022-10-20T13:26:23;67902.84;;;18.48;100.00
44144;BME280;43510;51.920;4.492;2022-10-20T13:28:51;67908.50;;;18.53;100.00
44144;BME280;43510;51.920;4.492;2022-10-20T13:31:30;67917.06;;;18.63;100.00
44144;BME280;43510;51.920;4.492;2022-10-20T13:34:12;67923.66;;;18.66;100.00
44144;BME280;43510;51.920;4.492;2022-10-20T13:45:23;67958.31;;;18.95;100.00
44144;BME280;43510;51.920;4.492;2022-10-20T13:50:39;67943.31;;;18.84;100.00
44144;BME280;43510;51.920;4.492;2022-10-20T13:53:28;67948.53;;;18.91;100.00
44144;BME280;43510;51.920;4.492;2022-10-20T13:56:18;67951.19;;;18.91;100.00
44144;BME280;43510;51.920;4.492;2022-10-20T14:01:45;67945.88;;;18.91;100.00
44144;BME280;43510;51.920;4.492;2022-10-20T14:04:34;67959.59;;;18.99;100.00
44144;BME280;43510;51.920;4.492;2022-10-20T14:07:03;67952.31;;;18.92;100.00
44144;BME280;43510;51.920;4.492;2022-10-20T14:09:29;67954.00;;;18.94;100.00
44144;BME280;43510;51.920;4.492;2022-10-20T14:12:00;67954.56;;;18.94;100.00
44144;BME280;43510;51.920;4.492;2022-10-20T14:14:27;67974.50;;;19.17;100.00
44144;BME280;43510;51.920;4.492;2022-10-20T14:16:57;67955.66;;;18.95;100.00
44144;BME280;43510;51.920;4.492;2022-10-20T14:19:28;67959.44;;;18.96;100.00
44144;BME280;43510;51.920;4.492;2022-10-20T14:24:43;67985.28;;;19.20;100.00
44144;BME280;43510;51.920;4.492;2022-10-20T14:27:16;67992.75;;;19.29;100.00
44144;BME280;43510;51.920;4.492;2022-10-20T14:29:43;67998.38;;;19.34;100.00
44144;BME280;43510;51.920;4.492;2022-10-20T14:32:14;68001.19;;;19.36;100.00
44144;BME280;43510;51.920;4.492;2022-10-20T14:35:02;68010.16;;;19.44;100.00
44144;BME280;43510;51.920;4.492;2022-10-20T14:37:32;68012.44;;;19.46;100.00
44144;BME280;43510;51.920;4.492;2022-10-20T14:40:04;68008.81;;;19.48;100.00
44144;BME280;43510;51.920;4.492;2022-10-20T14:42:31;68025.34;;;19.58;100.00
44144;BME280;43510;51.920;4.492;2022-10-20T14:44:58;68029.84;;;19.62;100.00
44144;BME280;43510;51.920;4.492;2022-10-20T14:47:28;68036.03;;;19.68;100.00
44144;BME280;43510;51.920;4.492;2022-10-20T14:49:57;68032.09;;;19.64;100.00
44144;BME280;43510;51.920;4.492;2022-10-20T14:52:28;68031.38;;;19.61;100.00
44144;BME280;43510;51.920;4.492;2022-10-20T14:54:54;68023.09;;;19.56;100.00
44144;BME280;43510;51.920;4.492;2022-10-20T14:57:29;68025.91;;;19.59;100.00
44144;BME280;43510;51.920;4.492;2022-10-20T14:59:56;68032.09;;;19.64;100.00
44144;BME280;43510;51.920;4.492;2022-10-20T15:02:32;68039.09;;;19.66;100.00
44144;BME280;43510;51.920;4.492;2022-10-20T15:05:22;68039.53;;;19.73;100.00
44144;BME280;43510;51.920;4.492;2022-10-20T15:07:49;68028.16;;;19.61;100.00
44144;BME280;43510;51.920;4.492;2022-10-20T15:10:17;68025.91;;;19.59;100.00